createdAt,value
2019-05-22T00:00:03.244Z,11.3
2019-05-22T00:01:02.750Z,11.3
2019-05-22T00:02:02.553Z,11.3
2019-05-22T00:03:04.004Z,11.3
2019-05-22T00:04:02.623Z,11.3
2019-05-22T00:05:03.172Z,11.3
2019-05-22T00:06:02.336Z,11.3
2019-05-22T00:07:02.448Z,11.3
2019-05-22T00:08:03.184Z,11.3
2019-05-22T00:09:02.594Z,11.3
2019-05-22T00:10:03.120Z,11.3
2019-05-22T00:11:02.771Z,11.3
2019-05-22T00:12:03.207Z,11.3
2019-05-22T00:13:02.266Z,11.3
2019-05-22T00:14:02.966Z,11.3
2019-05-22T00:15:04.040Z,11.3
2019-05-22T00:16:03.134Z,11.3
2019-05-22T00:17:03.391Z,11.3
2019-05-22T00:18:03.003Z,11.3
2019-05-22T00:19:03.247Z,11.3
2019-05-22T00:20:03.087Z,11.3
2019-05-22T00:21:03.459Z,11.3
2019-05-22T00:22:02.793Z,11.3
2019-05-22T00:23:03.463Z,11.3
2019-05-22T00:24:02.732Z,11.3
2019-05-22T00:25:02.927Z,11.3
2019-05-22T00:26:02.881Z,11.3
2019-05-22T00:27:02.838Z,11.3
2019-05-22T00:28:02.892Z,11.3
2019-05-22T00:29:03.021Z,11.3
2019-05-22T00:30:03.455Z,11.3
2019-05-22T00:31:02.747Z,11.3
2019-05-22T00:32:02.476Z,11.3
2019-05-22T00:33:02.801Z,11.3
2019-05-22T00:34:03.168Z,11.3
2019-05-22T00:35:02.942Z,11.3
2019-05-22T00:36:03.138Z,11.3
2019-05-22T00:37:01.720Z,11.3
2019-05-22T00:38:03.166Z,11.3
2019-05-22T00:39:02.646Z,11.3
2019-05-22T00:40:03.134Z,11.3
2019-05-22T00:41:02.555Z,11.3
2019-05-22T00:42:03.202Z,11.3
2019-05-22T00:43:14.128Z,11.3
2019-05-22T00:44:03.157Z,11.3
2019-05-22T00:45:03.227Z,11.3
2019-05-22T00:46:02.831Z,11.3
2019-05-22T00:47:03.008Z,11.3
2019-05-22T00:48:02.596Z,11.3
2019-05-22T00:49:03.192Z,11.3
2019-05-22T00:50:02.897Z,11.3
2019-05-22T00:51:02.913Z,11.3
2019-05-22T00:52:02.766Z,11.3
2019-05-22T00:53:03.130Z,11.3
2019-05-22T00:54:02.822Z,11.3
2019-05-22T00:55:02.812Z,11.3
2019-05-22T00:56:02.618Z,11.3
2019-05-22T00:57:02.733Z,11.3
2019-05-22T00:58:03.298Z,11.3
2019-05-22T00:59:02.996Z,11.3
2019-05-22T01:00:03.391Z,11.3
2019-05-22T01:01:02.703Z,11.3
2019-05-22T01:02:02.321Z,11.3
2019-05-22T01:03:02.881Z,11.3
2019-05-22T01:04:03.311Z,11.3
2019-05-22T01:05:01.747Z,11.3
2019-05-22T01:06:02.440Z,11.3
2019-05-22T01:07:02.639Z,11.3
2019-05-22T01:08:02.996Z,11.3
2019-05-22T01:09:03.235Z,11.3
2019-05-22T01:10:05.100Z,11.3
2019-05-22T01:11:03.292Z,11.3
2019-05-22T01:12:04.117Z,11.3
2019-05-22T01:13:02.591Z,11.3
2019-05-22T01:14:02.497Z,11.3
2019-05-22T01:15:04.516Z,11.3
2019-05-22T01:16:02.437Z,11.3
2019-05-22T01:17:02.946Z,11.3
2019-05-22T01:18:02.508Z,11.3
2019-05-22T01:19:03.157Z,11.3
2019-05-22T01:20:03.618Z,11.3
2019-05-22T01:21:02.951Z,11.3
2019-05-22T01:22:02.337Z,11.3
2019-05-22T01:23:03.103Z,11.3
2019-05-22T01:24:03.337Z,11.3
2019-05-22T01:25:02.685Z,11.3
2019-05-22T01:26:03.067Z,11.3
2019-05-22T01:27:03.331Z,11.3
2019-05-22T01:28:02.651Z,11.3
2019-05-22T01:29:02.993Z,11.3
2019-05-22T01:30:03.683Z,11.3
2019-05-22T01:31:02.468Z,11.3
2019-05-22T01:32:03.084Z,11.3
2019-05-22T01:33:03.197Z,11.2
2019-05-22T01:34:02.660Z,11.3
2019-05-22T01:35:03.092Z,11.3
2019-05-22T01:36:03.144Z,11.3
2019-05-22T01:37:02.937Z,11.3
2019-05-22T01:38:03.380Z,11.3
2019-05-22T01:39:02.618Z,11.3
2019-05-22T01:40:02.944Z,11.2
2019-05-22T01:41:02.624Z,11.3
2019-05-22T01:42:03.206Z,11.3
2019-05-22T01:43:02.548Z,11.3
2019-05-22T01:44:03.474Z,11.2
2019-05-22T01:45:07.208Z,11.2
2019-05-22T01:46:03.330Z,11.2
2019-05-22T01:47:02.667Z,11.2
2019-05-22T01:48:03.029Z,11.2
2019-05-22T01:49:02.675Z,11.2
2019-05-22T01:50:03.459Z,11.2
2019-05-22T01:51:02.730Z,11.2
2019-05-22T01:52:02.768Z,11.2
2019-05-22T01:53:03.259Z,11.2
2019-05-22T01:54:02.773Z,11.2
2019-05-22T01:55:03.200Z,11.2
2019-05-22T01:56:03.338Z,11.3
2019-05-22T01:57:03.357Z,11.2
2019-05-22T01:58:02.791Z,11.2
2019-05-22T01:59:03.215Z,11.2
2019-05-22T02:00:02.755Z,11.2
2019-05-22T02:01:03.074Z,11.2
2019-05-22T02:02:02.657Z,11.2
2019-05-22T02:03:03.487Z,11.2
2019-05-22T02:04:02.849Z,11.2
2019-05-22T02:05:03.483Z,11.2
2019-05-22T02:06:02.718Z,11.2
2019-05-22T02:07:03.143Z,11.2
2019-05-22T02:08:02.853Z,11.2
2019-05-22T02:09:03.306Z,11.1
2019-05-22T02:10:03.551Z,11.1
2019-05-22T02:11:02.911Z,11.1
2019-05-22T02:12:02.530Z,11.1
2019-05-22T02:13:02.706Z,11.1
2019-05-22T02:14:02.992Z,11.1
2019-05-22T02:15:03.174Z,11.1
2019-05-22T02:16:02.622Z,11.1
2019-05-22T02:17:03.185Z,11.1
2019-05-22T02:18:02.692Z,11.1
2019-05-22T02:19:02.958Z,11.1
2019-05-22T02:20:02.913Z,11.1
2019-05-22T02:21:03.475Z,11.1
2019-05-22T02:22:02.527Z,11.1
2019-05-22T02:23:03.474Z,11.1
2019-05-22T02:24:02.757Z,11.1
2019-05-22T02:25:02.698Z,11.1
2019-05-22T02:26:02.626Z,11.1
2019-05-22T02:27:03.642Z,11.1
2019-05-22T02:28:02.516Z,11.1
2019-05-22T02:29:03.040Z,11.1
2019-05-22T02:30:02.472Z,11.1
2019-05-22T02:31:02.490Z,11.1
2019-05-22T02:32:03.415Z,11.1
2019-05-22T02:33:02.709Z,11.1
2019-05-22T02:34:03.215Z,11.1
2019-05-22T02:35:03.498Z,11.1
2019-05-22T02:36:03.074Z,11.1
2019-05-22T02:37:03.136Z,11.1
2019-05-22T02:38:02.649Z,11.1
2019-05-22T02:39:03.094Z,11.1
2019-05-22T02:40:02.803Z,11.1
2019-05-22T02:41:02.737Z,11.1
2019-05-22T02:42:02.420Z,11.1
2019-05-22T02:43:02.644Z,11.1
2019-05-22T02:44:02.983Z,11.1
2019-05-22T02:45:02.789Z,11.1
2019-05-22T02:46:03.167Z,11.1
2019-05-22T02:47:21.535Z,11.1
2019-05-22T02:48:02.864Z,11.1
2019-05-22T02:49:03.447Z,11.1
2019-05-22T02:50:02.685Z,11.1
2019-05-22T02:51:03.141Z,11.1
2019-05-22T02:52:02.676Z,11.1
2019-05-22T02:53:02.519Z,11.1
2019-05-22T02:54:02.694Z,11.1
2019-05-22T02:55:02.348Z,11.1
2019-05-22T02:56:02.573Z,11.1
2019-05-22T02:57:03.144Z,11.1
2019-05-22T02:58:03.369Z,11.1
2019-05-22T02:59:02.806Z,11.1
2019-05-22T03:00:03.449Z,11.1
2019-05-22T03:01:02.566Z,11.1
2019-05-22T03:02:03.083Z,11.1
2019-05-22T03:03:02.635Z,11.1
2019-05-22T03:04:03.342Z,11.1
2019-05-22T03:05:02.767Z,11.1
2019-05-22T03:06:03.441Z,11.1
2019-05-22T03:07:02.525Z,11.1
2019-05-22T03:08:02.861Z,11.1
2019-05-22T03:09:02.622Z,11.1
2019-05-22T03:10:03.304Z,11.1
2019-05-22T03:11:02.782Z,11.1
2019-05-22T03:12:03.092Z,11.1
2019-05-22T03:13:02.832Z,11.1
2019-05-22T03:14:03.240Z,11.1
2019-05-22T03:15:03.133Z,11.1
2019-05-22T03:16:03.126Z,11.1
2019-05-22T03:17:02.920Z,11.1
2019-05-22T03:18:03.268Z,11.1
2019-05-22T03:19:09.583Z,11.1
2019-05-22T03:20:03.229Z,11.1
2019-05-22T03:21:02.519Z,11.1
2019-05-22T03:22:03.136Z,11.1
2019-05-22T03:23:02.541Z,11.1
2019-05-22T03:24:02.945Z,11.1
2019-05-22T03:25:02.653Z,11.1
2019-05-22T03:26:02.658Z,11.1
2019-05-22T03:27:02.406Z,11.1
2019-05-22T03:28:02.942Z,11.1
2019-05-22T03:29:02.405Z,11.1
2019-05-22T03:30:03.462Z,11.1
2019-05-22T03:31:02.502Z,11.1
2019-05-22T03:32:03.360Z,11.1
2019-05-22T03:33:03.461Z,11.1
2019-05-22T03:34:02.735Z,11.1
2019-05-22T03:35:03.413Z,11.1
2019-05-22T03:36:02.878Z,11.1
2019-05-22T03:37:03.336Z,11.1
2019-05-22T03:38:02.585Z,11.1
2019-05-22T03:39:03.417Z,11.1
2019-05-22T03:40:02.688Z,11.1
2019-05-22T03:41:02.951Z,11.1
2019-05-22T03:42:03.403Z,11.1
2019-05-22T03:43:02.893Z,11.1
2019-05-22T03:44:03.248Z,11.1
2019-05-22T03:45:02.700Z,11.1
2019-05-22T03:46:03.179Z,11.1
2019-05-22T03:47:03.209Z,11.1
2019-05-22T03:48:02.529Z,11.1
2019-05-22T03:49:02.564Z,11.1
2019-05-22T03:50:03.471Z,11.1
2019-05-22T03:51:02.616Z,11.1
2019-05-22T03:52:02.445Z,11.1
2019-05-22T03:53:03.043Z,11.1
2019-05-22T03:54:02.634Z,11.1
2019-05-22T03:55:02.448Z,11.1
2019-05-22T03:56:02.726Z,11
2019-05-22T03:57:02.971Z,11.1
2019-05-22T03:58:02.608Z,11
2019-05-22T03:59:03.302Z,11
2019-05-22T04:00:02.937Z,11
2019-05-22T04:01:03.530Z,11
2019-05-22T04:02:02.899Z,11.1
2019-05-22T04:03:03.240Z,11.1
2019-05-22T04:04:03.078Z,11
2019-05-22T04:05:02.593Z,11.1
2019-05-22T04:06:03.098Z,11
2019-05-22T04:07:03.077Z,11
2019-05-22T04:08:02.880Z,11
2019-05-22T04:09:02.817Z,11.1
2019-05-22T04:10:03.069Z,11.1
2019-05-22T04:11:03.453Z,11
2019-05-22T04:12:02.727Z,11.1
2019-05-22T04:13:02.453Z,11.1
2019-05-22T04:14:03.172Z,11.1
2019-05-22T04:15:03.252Z,11.1
2019-05-22T04:16:02.823Z,11.1
2019-05-22T04:17:03.371Z,11
2019-05-22T04:18:03.457Z,11
2019-05-22T04:19:02.878Z,11
2019-05-22T04:20:02.464Z,11
2019-05-22T04:21:03.316Z,11.1
2019-05-22T04:22:03.413Z,11.1
2019-05-22T04:23:02.944Z,11
2019-05-22T04:24:02.864Z,11
2019-05-22T04:25:02.649Z,11
2019-05-22T04:26:03.001Z,11.1
2019-05-22T04:27:02.812Z,11.1
2019-05-22T04:28:03.031Z,11
2019-05-22T04:29:02.609Z,11.1
2019-05-22T04:30:02.761Z,11.1
2019-05-22T04:31:03.373Z,11
2019-05-22T04:32:03.307Z,11
2019-05-22T04:33:03.290Z,11.1
2019-05-22T04:34:02.811Z,11.1
2019-05-22T04:35:03.095Z,11.1
2019-05-22T04:36:02.999Z,11
2019-05-22T04:37:03.193Z,11.1
2019-05-22T04:38:02.513Z,11.1
2019-05-22T04:39:02.790Z,11.1
2019-05-22T04:40:03.108Z,11.1
2019-05-22T04:41:03.141Z,11
2019-05-22T04:42:02.324Z,11.1
2019-05-22T04:43:02.612Z,11
2019-05-22T04:44:03.213Z,11
2019-05-22T04:45:03.237Z,11
2019-05-22T04:46:03.326Z,11.1
2019-05-22T04:47:03.358Z,11
2019-05-22T04:48:02.839Z,11
2019-05-22T04:49:02.360Z,11
2019-05-22T04:50:08.389Z,11
2019-05-22T04:51:02.810Z,11
2019-05-22T04:52:02.578Z,11
2019-05-22T04:53:02.882Z,11
2019-05-22T04:54:02.406Z,11
2019-05-22T04:55:03.177Z,11
2019-05-22T04:56:02.646Z,11
2019-05-22T04:57:02.768Z,11
2019-05-22T04:58:02.660Z,11
2019-05-22T04:59:03.006Z,11.1
2019-05-22T05:00:03.113Z,11.1
2019-05-22T05:01:03.161Z,11.1
2019-05-22T05:02:02.606Z,11.1
2019-05-22T05:03:02.962Z,11.1
2019-05-22T05:04:02.862Z,11.1
2019-05-22T05:05:03.521Z,11.1
2019-05-22T05:06:07.336Z,11.1
2019-05-22T05:07:03.368Z,11.1
2019-05-22T05:08:02.737Z,11.1
2019-05-22T05:09:03.448Z,11.1
2019-05-22T05:10:03.043Z,11.1
2019-05-22T05:11:02.609Z,11.1
2019-05-22T05:12:02.830Z,11.1
2019-05-22T05:13:03.308Z,11.1
2019-05-22T05:14:02.994Z,11.1
2019-05-22T05:15:03.514Z,11
2019-05-22T05:16:02.737Z,11.1
2019-05-22T05:17:03.144Z,11.1
2019-05-22T05:18:03.281Z,11.1
2019-05-22T05:19:02.751Z,11.1
2019-05-22T05:20:03.656Z,11.1
2019-05-22T05:21:02.877Z,11
2019-05-22T05:22:02.433Z,11
2019-05-22T05:23:02.911Z,11.1
2019-05-22T05:24:02.764Z,11.1
2019-05-22T05:25:03.255Z,11.1
2019-05-22T05:26:02.832Z,11.1
2019-05-22T05:27:02.860Z,11.1
2019-05-22T05:28:03.322Z,11
2019-05-22T05:29:02.826Z,11.1
2019-05-22T05:30:03.445Z,11
2019-05-22T05:31:03.144Z,11.1
2019-05-22T05:32:02.959Z,11.1
2019-05-22T05:33:02.743Z,11.1
2019-05-22T05:34:02.647Z,11.1
2019-05-22T05:35:02.806Z,11.1
2019-05-22T05:36:02.403Z,11.1
2019-05-22T05:37:02.769Z,11.1
2019-05-22T05:38:03.343Z,11.1
2019-05-22T05:39:02.516Z,11.1
2019-05-22T05:40:02.482Z,11.1
2019-05-22T05:41:02.651Z,11.1
2019-05-22T05:42:03.308Z,11.1
2019-05-22T05:43:02.483Z,11.1
2019-05-22T05:44:02.351Z,11.1
2019-05-22T05:45:02.978Z,11.1
2019-05-22T05:46:03.012Z,11.1
2019-05-22T05:47:02.431Z,11.1
2019-05-22T05:48:03.049Z,11.1
2019-05-22T05:49:02.593Z,11.1
2019-05-22T05:50:03.383Z,11.2
2019-05-22T05:51:02.736Z,11.2
2019-05-22T05:52:03.265Z,11.2
2019-05-22T05:53:02.850Z,11.2
2019-05-22T05:54:04.116Z,11.2
2019-05-22T05:55:02.865Z,11.2
2019-05-22T05:56:03.394Z,11.2
2019-05-22T05:57:03.294Z,11.2
2019-05-22T05:58:02.606Z,11.2
2019-05-22T05:59:03.367Z,11.3
2019-05-22T06:00:02.774Z,11.2
2019-05-22T06:01:03.257Z,11.2
2019-05-22T06:02:02.417Z,11.2
2019-05-22T06:03:03.061Z,11.3
2019-05-22T06:04:02.631Z,11.3
2019-05-22T06:05:02.395Z,11.3
2019-05-22T06:06:02.625Z,11.3
2019-05-22T06:07:03.006Z,11.3
2019-05-22T06:08:03.240Z,11.3
2019-05-22T06:09:03.398Z,11.3
2019-05-22T06:10:02.970Z,11.3
2019-05-22T06:11:02.683Z,11.3
2019-05-22T06:12:06.140Z,11.3
2019-05-22T06:13:03.864Z,11.3
2019-05-22T06:14:02.597Z,11.3
2019-05-22T06:15:03.023Z,11.3
2019-05-22T06:16:02.661Z,11.3
2019-05-22T06:17:02.913Z,11.4
2019-05-22T06:18:02.801Z,11.4
2019-05-22T06:19:02.838Z,11.4
2019-05-22T06:20:02.680Z,11.4
2019-05-22T06:21:04.922Z,11.4
2019-05-22T06:22:03.344Z,11.4
2019-05-22T06:23:02.786Z,11.4
2019-05-22T06:24:03.355Z,11.4
2019-05-22T06:25:04.722Z,11.4
2019-05-22T06:26:03.069Z,11.4
2019-05-22T06:27:02.634Z,11.4
2019-05-22T06:28:03.488Z,11.4
2019-05-22T06:29:02.713Z,11.4
2019-05-22T06:30:02.979Z,11.4
2019-05-22T06:31:02.632Z,11.4
2019-05-22T06:32:03.109Z,11.5
2019-05-22T06:33:03.232Z,11.5
2019-05-22T06:34:02.952Z,11.4
2019-05-22T06:35:03.425Z,11.5
2019-05-22T06:36:02.874Z,11.4
2019-05-22T06:37:03.259Z,11.4
2019-05-22T06:38:02.603Z,11.4
2019-05-22T06:39:03.013Z,11.5
2019-05-22T06:40:02.672Z,11.5
2019-05-22T06:41:03.182Z,11.5
2019-05-22T06:42:03.375Z,11.5
2019-05-22T06:43:02.710Z,11.6
2019-05-22T06:44:03.100Z,11.5
2019-05-22T06:45:04.878Z,11.6
2019-05-22T06:46:02.964Z,11.6
2019-05-22T06:47:03.438Z,11.6
2019-05-22T06:48:03.102Z,11.6
2019-05-22T06:49:02.925Z,11.6
2019-05-22T06:50:02.807Z,11.6
2019-05-22T06:51:19.937Z,11.6
2019-05-22T06:52:03.089Z,11.6
2019-05-22T06:53:10.459Z,11.6
2019-05-22T06:54:02.725Z,11.6
2019-05-22T06:55:03.590Z,11.6
2019-05-22T06:56:02.827Z,11.6
2019-05-22T06:57:02.561Z,11.6
2019-05-22T06:58:02.938Z,11.7
2019-05-22T06:59:03.241Z,11.7
2019-05-22T07:00:15.678Z,11.7
2019-05-22T07:01:03.286Z,11.7
2019-05-22T07:02:02.568Z,11.7
2019-05-22T07:03:03.529Z,11.7
2019-05-22T07:04:03.415Z,11.7
2019-05-22T07:05:03.318Z,11.8
2019-05-22T07:06:02.836Z,11.8
2019-05-22T07:07:04.447Z,11.7
2019-05-22T07:08:02.764Z,11.6
2019-05-22T07:09:02.961Z,11.6
2019-05-22T07:10:02.928Z,11.7
2019-05-22T07:11:03.272Z,11.7
2019-05-22T07:12:02.890Z,11.6
2019-05-22T07:13:03.221Z,11.6
2019-05-22T07:14:03.220Z,11.6
2019-05-22T07:15:03.037Z,11.7
2019-05-22T07:16:03.389Z,11.6
2019-05-22T07:17:02.807Z,11.6
2019-05-22T07:18:03.368Z,11.7
2019-05-22T07:19:03.728Z,11.7
2019-05-22T07:20:03.093Z,11.7
2019-05-22T07:21:03.312Z,11.6
2019-05-22T07:22:03.157Z,11.6
2019-05-22T07:23:03.726Z,11.6
2019-05-22T07:24:03.007Z,11.6
2019-05-22T07:25:03.415Z,11.6
2019-05-22T07:26:02.819Z,11.7
2019-05-22T07:27:03.431Z,11.6
2019-05-22T07:28:02.903Z,11.7
2019-05-22T07:29:05.434Z,11.7
2019-05-22T07:30:03.756Z,11.8
2019-05-22T07:31:02.708Z,11.7
2019-05-22T07:32:02.615Z,11.7
2019-05-22T07:33:02.916Z,11.7
2019-05-22T07:34:03.619Z,11.7
2019-05-22T07:35:03.010Z,11.7
2019-05-22T07:36:16.867Z,11.8
2019-05-22T07:37:02.659Z,11.8
2019-05-22T07:38:02.660Z,11.8
2019-05-22T07:39:03.492Z,11.7
2019-05-22T07:40:02.709Z,11.7
2019-05-22T07:41:03.148Z,11.7
2019-05-22T07:42:02.690Z,11.8
2019-05-22T07:43:03.129Z,11.8
2019-05-22T07:44:03.324Z,11.7
2019-05-22T07:45:03.141Z,11.7
2019-05-22T07:46:03.178Z,11.7
2019-05-22T07:47:02.796Z,11.6
2019-05-22T07:48:03.869Z,11.8
2019-05-22T07:49:02.240Z,11.8
2019-05-22T07:50:03.460Z,11.8
2019-05-22T07:51:03.584Z,11.8
2019-05-22T07:52:02.987Z,11.6
2019-05-22T07:53:03.202Z,11.6
2019-05-22T07:54:02.629Z,11.6
2019-05-22T07:55:03.182Z,11.6
2019-05-22T07:56:02.814Z,11.6
2019-05-22T07:57:03.204Z,11.7
2019-05-22T07:58:02.545Z,11.7
2019-05-22T07:59:02.655Z,11.7
2019-05-22T08:00:02.598Z,11.7
2019-05-22T08:01:02.694Z,11.6
2019-05-22T08:02:02.980Z,11.6
2019-05-22T08:03:02.600Z,11.6
2019-05-22T08:04:02.917Z,11.6
2019-05-22T08:05:03.453Z,11.6
2019-05-22T08:06:03.015Z,11.6
2019-05-22T08:07:03.529Z,11.6
2019-05-22T08:08:02.863Z,11.6
2019-05-22T08:09:03.141Z,11.6
2019-05-22T08:10:03.453Z,11.7
2019-05-22T08:11:02.875Z,11.8
2019-05-22T08:12:03.359Z,11.8
2019-05-22T08:13:03.000Z,11.8
2019-05-22T08:14:03.447Z,11.8
2019-05-22T08:15:02.899Z,11.8
2019-05-22T08:16:02.932Z,11.8
2019-05-22T08:17:02.611Z,11.8
2019-05-22T08:18:02.563Z,11.9
2019-05-22T08:19:02.475Z,11.9
2019-05-22T08:20:02.805Z,11.9
2019-05-22T08:21:03.688Z,11.9
2019-05-22T08:22:08.241Z,11.9
2019-05-22T08:23:03.057Z,11.8
2019-05-22T08:24:03.360Z,11.9
2019-05-22T08:25:02.559Z,11.9
2019-05-22T08:26:03.042Z,11.9
2019-05-22T08:27:02.645Z,11.9
2019-05-22T08:28:02.858Z,11.9
2019-05-22T08:29:02.947Z,11.9
2019-05-22T08:30:03.238Z,11.9
2019-05-22T08:31:02.574Z,11.9
2019-05-22T08:32:02.987Z,11.9
2019-05-22T08:33:02.810Z,11.9
2019-05-22T08:34:03.205Z,11.9
2019-05-22T08:35:02.622Z,11.9
2019-05-22T08:36:03.186Z,11.9
2019-05-22T08:37:02.640Z,12
2019-05-22T08:38:02.871Z,12
2019-05-22T08:39:02.884Z,12.1
2019-05-22T08:40:03.337Z,12
2019-05-22T08:41:02.583Z,12.1
2019-05-22T08:42:03.066Z,12.1
2019-05-22T08:43:03.032Z,11.9
2019-05-22T08:44:18.016Z,11.9
2019-05-22T08:45:03.294Z,11.9
2019-05-22T08:46:02.392Z,11.9
2019-05-22T08:47:03.070Z,11.9
2019-05-22T08:48:02.461Z,11.9
2019-05-22T08:49:02.685Z,11.9
2019-05-22T08:50:03.580Z,11.9
2019-05-22T08:51:02.889Z,11.9
2019-05-22T08:52:03.109Z,11.8
2019-05-22T08:53:03.179Z,11.9
2019-05-22T08:54:06.315Z,11.8
2019-05-22T08:55:03.029Z,11.8
2019-05-22T08:56:03.397Z,11.8
2019-05-22T08:57:02.936Z,11.8
2019-05-22T08:58:02.530Z,11.8
2019-05-22T08:59:20.410Z,11.8
2019-05-22T09:00:03.169Z,11.8
2019-05-22T09:01:03.069Z,11.8
2019-05-22T09:02:02.542Z,11.8
2019-05-22T09:03:03.427Z,11.7
2019-05-22T09:04:02.648Z,11.7
2019-05-22T09:05:02.685Z,11.7
2019-05-22T09:06:03.068Z,11.6
2019-05-22T09:07:02.619Z,11.7
2019-05-22T09:08:03.514Z,11.7
2019-05-22T09:09:02.755Z,11.7
2019-05-22T09:10:03.008Z,11.7
2019-05-22T09:11:03.344Z,11.7
2019-05-22T09:12:02.923Z,11.7
2019-05-22T09:13:03.361Z,11.8
2019-05-22T09:14:03.142Z,11.8
2019-05-22T09:15:03.308Z,11.8
2019-05-22T09:16:02.827Z,11.7
2019-05-22T09:17:03.144Z,11.8
2019-05-22T09:18:02.502Z,11.8
2019-05-22T09:19:02.951Z,11.9
2019-05-22T09:20:03.219Z,11.8
2019-05-22T09:21:02.786Z,11.8
2019-05-22T09:22:03.128Z,11.8
2019-05-22T09:23:02.690Z,11.8
2019-05-22T09:24:03.144Z,11.8
2019-05-22T09:25:04.071Z,11.9
2019-05-22T09:26:02.890Z,11.9
2019-05-22T09:27:03.424Z,11.8
2019-05-22T09:28:02.437Z,11.8
2019-05-22T09:29:03.132Z,11.8
2019-05-22T09:30:02.580Z,11.9
2019-05-22T09:31:02.765Z,11.8
2019-05-22T09:32:02.723Z,11.8
2019-05-22T09:33:02.260Z,11.8
2019-05-22T09:34:03.259Z,11.8
2019-05-22T09:35:02.896Z,11.9
2019-05-22T09:36:03.512Z,11.9
2019-05-22T09:37:02.362Z,11.9
2019-05-22T09:38:02.992Z,12
2019-05-22T09:39:03.457Z,12
2019-05-22T09:40:02.604Z,12.1
2019-05-22T09:41:02.769Z,12.1
2019-05-22T09:42:02.836Z,12.1
2019-05-22T09:43:02.630Z,12.2
2019-05-22T09:44:02.836Z,12.1
2019-05-22T09:45:03.034Z,12.1
2019-05-22T09:46:02.551Z,12.1
2019-05-22T09:47:03.411Z,12.2
2019-05-22T09:48:02.450Z,12.2
2019-05-22T09:49:03.269Z,12.1
2019-05-22T09:50:02.733Z,12.1
2019-05-22T09:51:03.333Z,12.1
2019-05-22T09:52:03.269Z,12
2019-05-22T09:53:03.300Z,12.1
2019-05-22T09:54:03.297Z,12.1
2019-05-22T09:55:03.028Z,12.1
2019-05-22T09:56:03.354Z,12.1
2019-05-22T09:57:03.323Z,12.1
2019-05-22T09:58:02.915Z,12.1
2019-05-22T09:59:03.171Z,12.1
2019-05-22T10:00:03.020Z,12.1
2019-05-22T10:01:03.496Z,12.1
2019-05-22T10:02:02.565Z,12.1
2019-05-22T10:03:03.724Z,12.1
2019-05-22T10:04:02.594Z,12.1
2019-05-22T10:05:03.491Z,12.1
2019-05-22T10:06:03.423Z,12.1
2019-05-22T10:07:02.535Z,12.1
2019-05-22T10:08:02.894Z,12
2019-05-22T10:09:03.140Z,12.1
2019-05-22T10:10:03.520Z,12.1
2019-05-22T10:11:02.904Z,12.1
2019-05-22T10:12:02.528Z,12.1
2019-05-22T10:13:02.908Z,12.1
2019-05-22T10:14:03.266Z,12.2
2019-05-22T10:15:05.194Z,12.1
2019-05-22T10:16:03.265Z,12.2
2019-05-22T10:17:02.726Z,12.3
2019-05-22T10:18:03.365Z,12.3
2019-05-22T10:19:02.702Z,12.4
2019-05-22T10:20:03.153Z,12.4
2019-05-22T10:21:02.484Z,12.4
2019-05-22T10:22:02.808Z,12.5
2019-05-22T10:23:16.576Z,12.6
2019-05-22T10:24:03.450Z,12.6
2019-05-22T10:25:17.427Z,12.7
2019-05-22T10:26:03.253Z,12.8
2019-05-22T10:27:02.740Z,12.8
2019-05-22T10:28:02.491Z,13
2019-05-22T10:29:02.683Z,13.1
2019-05-22T10:30:03.190Z,13.2
2019-05-22T10:31:03.214Z,13.3
2019-05-22T10:32:02.722Z,13.3
2019-05-22T10:33:02.448Z,13.3
2019-05-22T10:34:03.239Z,13.2
2019-05-22T10:35:02.713Z,13.1
2019-05-22T10:36:02.904Z,13.1
2019-05-22T10:37:03.044Z,13.1
2019-05-22T10:38:03.382Z,13.1
2019-05-22T10:39:03.231Z,13
2019-05-22T10:40:02.873Z,12.9
2019-05-22T10:41:02.959Z,12.9
2019-05-22T10:42:03.413Z,12.9
2019-05-22T10:43:03.339Z,12.9
2019-05-22T10:44:03.314Z,12.9
2019-05-22T10:45:02.820Z,13
2019-05-22T10:46:03.487Z,13.1
2019-05-22T10:47:03.012Z,13.1
2019-05-22T10:48:03.480Z,13.3
2019-05-22T10:49:02.295Z,13.3
2019-05-22T10:50:03.041Z,13.3
2019-05-22T10:51:02.667Z,13.4
2019-05-22T10:52:03.061Z,13.4
2019-05-22T10:53:02.679Z,13.4
2019-05-22T10:54:03.468Z,13.3
2019-05-22T10:55:02.976Z,13.3
2019-05-22T10:56:03.318Z,13.4
2019-05-22T10:57:02.899Z,13.3
2019-05-22T10:58:03.396Z,13.3
2019-05-22T10:59:02.666Z,13.4
2019-05-22T11:00:03.407Z,13.4
2019-05-22T11:01:02.573Z,13.4
2019-05-22T11:02:02.886Z,13.4
2019-05-22T11:03:03.363Z,13.4
2019-05-22T11:04:02.927Z,13.3
2019-05-22T11:05:04.031Z,13.3
2019-05-22T11:06:08.347Z,13.2
2019-05-22T11:07:02.552Z,13.3
2019-05-22T11:08:02.910Z,13.3
2019-05-22T11:09:02.690Z,13.3
2019-05-22T11:10:02.680Z,13.3
2019-05-22T11:11:02.849Z,13.3
2019-05-22T11:12:02.616Z,13.4
2019-05-22T11:13:02.811Z,13.4
2019-05-22T11:14:03.120Z,13.4
2019-05-22T11:15:02.546Z,13.3
2019-05-22T11:16:03.190Z,13.4
2019-05-22T11:17:02.877Z,13.4
2019-05-22T11:18:03.359Z,13.3
2019-05-22T11:19:02.797Z,13.3
2019-05-22T11:20:03.241Z,13.4
2019-05-22T11:21:02.704Z,13.4
2019-05-22T11:22:02.881Z,13.5
2019-05-22T11:23:03.254Z,13.6
2019-05-22T11:24:02.730Z,13.6
2019-05-22T11:25:02.846Z,13.6
2019-05-22T11:26:03.143Z,13.8
2019-05-22T11:27:02.657Z,13.9
2019-05-22T11:28:03.116Z,14
2019-05-22T11:29:02.698Z,14
2019-05-22T11:30:02.758Z,14.1
2019-05-22T11:31:03.305Z,13.9
2019-05-22T11:32:02.641Z,13.9
2019-05-22T11:33:02.660Z,13.8
2019-05-22T11:34:02.974Z,13.9
2019-05-22T11:35:03.274Z,14
2019-05-22T11:36:02.685Z,14.1
2019-05-22T11:37:03.054Z,14.1
2019-05-22T11:38:02.452Z,14.1
2019-05-22T11:39:03.103Z,14.1
2019-05-22T11:40:02.956Z,14.1
2019-05-22T11:41:03.150Z,14.2
2019-05-22T11:42:02.709Z,14.2
2019-05-22T11:43:03.106Z,14.1
2019-05-22T11:44:02.454Z,14.1
2019-05-22T11:45:03.201Z,14
2019-05-22T11:46:02.617Z,13.9
2019-05-22T11:47:02.771Z,13.9
2019-05-22T11:48:04.199Z,13.9
2019-05-22T11:49:02.602Z,13.8
2019-05-22T11:50:03.314Z,13.8
2019-05-22T11:51:03.301Z,13.7
2019-05-22T11:52:03.247Z,13.8
2019-05-22T11:53:03.298Z,13.7
2019-05-22T11:54:10.159Z,13.7
2019-05-22T11:55:03.213Z,13.7
2019-05-22T11:56:03.081Z,13.8
2019-05-22T11:57:03.097Z,13.8
2019-05-22T11:58:02.593Z,13.8
2019-05-22T11:59:03.195Z,13.7
2019-05-22T12:00:02.542Z,13.6
2019-05-22T12:01:02.999Z,13.5
2019-05-22T12:02:02.310Z,13.5
2019-05-22T12:03:02.713Z,13.5
2019-05-22T12:04:02.876Z,13.5
2019-05-22T12:05:03.223Z,13.6
2019-05-22T12:06:02.801Z,13.5
2019-05-22T12:07:03.136Z,13.6
2019-05-22T12:08:03.181Z,13.7
2019-05-22T12:09:03.004Z,13.8
2019-05-22T12:10:03.063Z,13.9
2019-05-22T12:11:03.219Z,13.8
2019-05-22T12:12:03.157Z,13.9
2019-05-22T12:13:02.521Z,13.8
2019-05-22T12:14:03.109Z,13.9
2019-05-22T12:15:03.308Z,13.9
2019-05-22T12:16:02.750Z,13.9
2019-05-22T12:17:02.912Z,14
2019-05-22T12:18:02.987Z,13.8
2019-05-22T12:19:03.151Z,13.8
2019-05-22T12:20:02.998Z,13.8
2019-05-22T12:21:03.112Z,13.8
2019-05-22T12:22:02.826Z,13.8
2019-05-22T12:23:03.242Z,13.8
2019-05-22T12:24:02.669Z,13.7
2019-05-22T12:25:03.275Z,13.6
2019-05-22T12:26:02.562Z,13.6
2019-05-22T12:27:02.579Z,13.5
2019-05-22T12:28:03.322Z,13.5
2019-05-22T12:29:02.923Z,13.6
2019-05-22T12:30:02.343Z,13.6
2019-05-22T12:31:03.168Z,13.6
2019-05-22T12:32:02.697Z,13.6
2019-05-22T12:33:02.896Z,13.5
2019-05-22T12:34:03.096Z,13.5
2019-05-22T12:35:03.044Z,13.5
2019-05-22T12:36:03.033Z,13.5
2019-05-22T12:37:02.543Z,13.5
2019-05-22T12:38:02.777Z,13.5
2019-05-22T12:39:03.040Z,13.6
2019-05-22T12:40:02.489Z,13.6
2019-05-22T12:41:03.014Z,13.6
2019-05-22T12:42:03.092Z,13.7
2019-05-22T12:43:02.762Z,13.7
2019-05-22T12:44:03.485Z,13.8
2019-05-22T12:45:04.050Z,13.8
2019-05-22T12:46:03.240Z,13.8
2019-05-22T12:47:02.315Z,13.8
2019-05-22T12:48:03.469Z,13.8
2019-05-22T12:49:02.436Z,13.8
2019-05-22T12:50:03.350Z,13.7
2019-05-22T12:51:02.861Z,13.6
2019-05-22T12:52:02.967Z,13.6
2019-05-22T12:53:03.112Z,13.5
2019-05-22T12:54:02.824Z,13.6
2019-05-22T12:55:03.358Z,13.5
2019-05-22T12:56:03.156Z,13.4
2019-05-22T12:57:02.677Z,13.4
2019-05-22T12:58:02.540Z,13.4
2019-05-22T12:59:03.589Z,13.3
2019-05-22T13:00:03.361Z,13.3
2019-05-22T13:01:03.438Z,13.2
2019-05-22T13:02:03.364Z,13.2
2019-05-22T13:03:03.296Z,13.2
2019-05-22T13:04:03.073Z,13.1
2019-05-22T13:05:03.346Z,13.1
2019-05-22T13:06:02.857Z,13.1
2019-05-22T13:07:03.406Z,13.2
2019-05-22T13:08:03.369Z,13.1
2019-05-22T13:09:03.462Z,13.1
2019-05-22T13:10:03.575Z,13.1
2019-05-22T13:11:05.785Z,13.1
2019-05-22T13:12:02.499Z,13.2
2019-05-22T13:13:02.932Z,13.1
2019-05-22T13:14:02.626Z,13.1
2019-05-22T13:15:11.254Z,13.1
2019-05-22T13:16:03.333Z,13.1
2019-05-22T13:17:02.868Z,13.1
2019-05-22T13:18:03.672Z,13.1
2019-05-22T13:19:03.308Z,13
2019-05-22T13:20:03.355Z,13
2019-05-22T13:21:03.382Z,13
2019-05-22T13:22:02.818Z,13.1